createdAt,value
2022-12-05T00:01:31.368Z,9.54
2022-12-05T00:04:01.029Z,9.50
2022-12-05T00:06:29.346Z,9.41
2022-12-05T00:08:56.960Z,9.45
2022-12-05T00:11:26.919Z,9.40
2022-12-05T00:13:56.390Z,9.42
2022-12-05T00:16:25.295Z,9.42
2022-12-05T00:18:52.053Z,9.51
2022-12-05T00:21:23.233Z,9.53
2022-12-05T00:23:51.122Z,9.54
2022-12-05T00:26:17.853Z,9.38
2022-12-05T00:28:45.920Z,9.32
2022-12-05T00:31:16.552Z,9.28
2022-12-05T00:33:44.041Z,9.19
2022-12-05T00:36:14.046Z,9.14
2022-12-05T00:38:42.255Z,9.22
2022-12-05T00:41:14.419Z,9.05
2022-12-05T00:43:41.665Z,9.01
2022-12-05T00:46:11.400Z,8.89
2022-12-05T00:48:38.223Z,8.72
2022-12-05T00:51:17.862Z,8.86
2022-12-05T00:53:46.013Z,8.98
2022-12-05T00:56:15.952Z,8.93
2022-12-05T00:58:43.423Z,8.86
2022-12-05T01:01:28.788Z,8.88
2022-12-05T01:03:57.664Z,8.94
2022-12-05T01:06:25.658Z,8.95
2022-12-05T01:08:54.602Z,8.85
2022-12-05T01:11:22.023Z,8.96
2022-12-05T01:13:49.150Z,8.92
2022-12-05T01:16:24.889Z,8.97
2022-12-05T01:18:51.986Z,8.74
2022-12-05T01:21:19.411Z,8.60
2022-12-05T01:23:46.331Z,8.45
2022-12-05T01:26:14.956Z,8.28
2022-12-05T01:28:42.232Z,8.04
2022-12-05T01:31:30.843Z,8.00
2022-12-05T01:34:00.332Z,8.13
2022-12-05T01:36:27.911Z,8.26
2022-12-05T01:38:55.414Z,8.23
2022-12-05T01:41:25.570Z,8.30
2022-12-05T01:44:15.498Z,8.33
2022-12-05T01:46:50.686Z,8.44
2022-12-05T01:49:39.912Z,8.44
2022-12-05T01:52:18.544Z,8.49
2022-12-05T01:54:48.199Z,8.50
2022-12-05T01:57:15.720Z,8.50
2022-12-05T01:59:49.144Z,8.50
2022-12-05T02:02:16.422Z,8.43
2022-12-05T02:05:14.495Z,8.35
2022-12-05T02:07:43.792Z,8.18
2022-12-05T02:10:11.164Z,8.06
2022-12-05T02:12:40.638Z,7.98
2022-12-05T02:15:25.862Z,8.14
2022-12-05T02:18:04.046Z,8.08
2022-12-05T02:20:36.169Z,8.23
2022-12-05T02:23:37.450Z,8.14
2022-12-05T02:26:13.236Z,8.14
2022-12-05T02:28:59.091Z,8.07
2022-12-05T02:32:04.863Z,8.08
2022-12-05T02:34:34.279Z,7.98
2022-12-05T02:37:14.133Z,7.96
2022-12-05T02:40:03.336Z,7.96
2022-12-05T02:42:50.262Z,7.88
2022-12-05T02:45:20.265Z,7.79
2022-12-05T02:47:52.772Z,7.69
2022-12-05T02:50:23.677Z,7.73
2022-12-05T02:52:54.475Z,7.81
2022-12-05T02:55:23.864Z,7.84
2022-12-05T02:57:54.879Z,7.88
2022-12-05T03:00:21.981Z,8.00
2022-12-05T03:02:56.084Z,7.76
2022-12-05T03:05:42.245Z,7.94
2022-12-05T03:08:16.289Z,7.61
2022-12-05T03:10:45.339Z,7.46
2022-12-05T03:13:19.091Z,7.55
2022-12-05T03:15:50.838Z,7.48
2022-12-05T03:18:38.100Z,7.58
2022-12-05T03:21:29.751Z,7.63
2022-12-05T03:24:09.352Z,7.68
2022-12-05T03:26:57.535Z,7.58
2022-12-05T03:29:36.175Z,7.49
2022-12-05T03:32:05.913Z,7.44
2022-12-05T03:34:45.217Z,7.44
2022-12-05T03:37:20.291Z,7.41
2022-12-05T03:39:55.220Z,7.26
2022-12-05T03:42:31.224Z,7.11
2022-12-05T03:45:02.515Z,7.10
2022-12-05T03:47:47.083Z,6.91
2022-12-05T03:50:22.815Z,6.60
2022-12-05T03:56:11.914Z,6.53
2022-12-05T03:58:48.671Z,6.64
2022-12-05T04:01:18.430Z,6.58
2022-12-05T04:03:52.893Z,6.40
2022-12-05T04:06:50.348Z,6.64
2022-12-05T04:09:24.127Z,6.86
2022-12-05T04:12:01.712Z,6.66
2022-12-05T04:14:35.322Z,6.67
2022-12-05T04:17:09.330Z,6.51
2022-12-05T04:20:09.276Z,6.61
2022-12-05T04:22:37.723Z,6.40
2022-12-05T04:25:27.325Z,6.40
2022-12-05T04:27:56.985Z,6.39
2022-12-05T04:30:30.379Z,6.29
2022-12-05T04:33:24.318Z,6.29
2022-12-05T04:36:01.202Z,6.10
2022-12-05T04:38:54.170Z,6.15
2022-12-05T04:41:24.427Z,6.18
2022-12-05T04:43:56.460Z,6.34
2022-12-05T04:46:24.561Z,6.30
2022-12-05T04:48:56.385Z,6.29
2022-12-05T04:51:30.923Z,6.45
2022-12-05T04:54:02.730Z,6.36
2022-12-05T04:56:34.103Z,6.28
2022-12-05T04:59:00.941Z,6.26
2022-12-05T05:01:34.207Z,6.36
2022-12-05T05:04:13.020Z,6.48
2022-12-05T05:06:40.880Z,6.59
2022-12-05T05:09:07.854Z,6.48
2022-12-05T05:11:36.388Z,6.53
2022-12-05T05:14:03.946Z,6.68
2022-12-05T05:16:48.684Z,6.71
2022-12-05T05:19:15.549Z,6.68
2022-12-05T05:21:42.919Z,6.73
2022-12-05T05:24:11.983Z,6.58
2022-12-05T05:26:40.803Z,6.56
2022-12-05T05:29:07.966Z,6.54
2022-12-05T05:31:35.477Z,6.48
2022-12-05T05:34:09.126Z,6.58
2022-12-05T05:36:36.791Z,6.66
2022-12-05T05:39:06.798Z,6.74
2022-12-05T05:41:36.065Z,6.71
2022-12-05T05:44:04.112Z,6.80
2022-12-05T05:46:33.939Z,6.93
2022-12-05T05:49:01.090Z,7.09
2022-12-05T05:51:29.366Z,6.95
2022-12-05T05:53:57.834Z,7.08
2022-12-05T05:56:24.878Z,7.04
2022-12-05T05:58:57.050Z,6.93
2022-12-05T06:01:24.504Z,7.00
2022-12-05T06:03:51.296Z,6.87
2022-12-05T06:06:19.107Z,6.98
2022-12-05T06:08:46.213Z,6.97
2022-12-05T06:11:25.413Z,6.78
2022-12-05T06:13:57.313Z,6.78
2022-12-05T06:16:24.857Z,6.83
2022-12-05T06:18:52.390Z,6.54
2022-12-05T06:21:19.262Z,6.57
2022-12-05T06:23:46.025Z,6.40
2022-12-05T06:26:15.134Z,6.53
2022-12-05T06:28:42.323Z,6.24
2022-12-05T06:31:18.253Z,6.37
2022-12-05T06:33:45.583Z,6.34
2022-12-05T06:36:15.189Z,6.23
2022-12-05T06:38:42.688Z,6.21
2022-12-05T06:41:13.876Z,6.24
2022-12-05T06:43:40.823Z,6.21
2022-12-05T06:46:11.959Z,6.33
2022-12-05T06:48:39.707Z,6.23
2022-12-05T06:51:10.526Z,6.14
2022-12-05T06:53:37.731Z,6.28
2022-12-05T06:56:08.292Z,6.32
2022-12-05T06:58:35.078Z,6.43
2022-12-05T07:01:20.119Z,6.54
2022-12-05T07:03:49.357Z,6.51
2022-12-05T07:06:17.422Z,6.63
2022-12-05T07:08:44.902Z,6.59
2022-12-05T07:11:11.837Z,6.61
2022-12-05T07:13:38.693Z,6.71
2022-12-05T07:16:07.339Z,6.69
2022-12-05T07:18:35.912Z,6.64
2022-12-05T07:21:14.273Z,6.70
2022-12-05T07:23:43.603Z,6.42
2022-12-05T07:26:13.117Z,6.27
2022-12-05T07:28:39.870Z,6.44
2022-12-05T07:31:12.000Z,6.40
2022-12-05T07:33:39.031Z,6.60
2022-12-05T07:36:11.736Z,6.48
2022-12-05T07:38:39.687Z,6.92
2022-12-05T07:41:13.107Z,7.09
2022-12-05T07:43:41.357Z,7.47
2022-12-05T07:46:11.963Z,7.23
2022-12-05T07:48:39.924Z,7.42
2022-12-05T07:51:08.356Z,7.34
2022-12-05T07:53:36.055Z,7.31
2022-12-05T07:56:05.927Z,7.25
2022-12-05T07:58:34.196Z,7.42
2022-12-05T08:01:19.133Z,7.17
2022-12-05T08:03:46.592Z,7.21
2022-12-05T08:06:15.352Z,7.40
2022-12-05T08:08:42.648Z,7.62
2022-12-05T08:11:15.026Z,7.67
2022-12-05T08:13:43.057Z,7.78
2022-12-05T08:16:14.189Z,7.82
2022-12-05T08:18:42.412Z,8.04
2022-12-05T08:21:15.135Z,8.15
2022-12-05T08:23:42.250Z,8.31
2022-12-05T08:26:21.015Z,8.02
2022-12-05T08:28:51.710Z,8.10
2022-12-05T08:31:20.875Z,7.93
2022-12-05T08:33:47.758Z,7.83
2022-12-05T08:36:15.742Z,7.72
2022-12-05T08:38:43.591Z,7.68
2022-12-05T08:41:13.058Z,7.80
2022-12-05T08:43:40.202Z,7.97
2022-12-05T08:46:07.664Z,8.01
2022-12-05T08:48:35.356Z,8.11
2022-12-05T08:51:07.878Z,8.05
2022-12-05T08:53:40.978Z,8.29
2022-12-05T08:56:11.427Z,8.26
2022-12-05T08:58:39.158Z,8.42
2022-12-05T09:01:06.817Z,8.56
2022-12-05T09:03:33.793Z,8.47
2022-12-05T09:06:12.208Z,8.47
2022-12-05T09:08:39.947Z,8.57
2022-12-05T09:11:08.836Z,8.69
2022-12-05T09:13:35.908Z,8.72
2022-12-05T09:16:14.642Z,8.86
2022-12-05T09:18:41.736Z,8.81
2022-12-05T09:21:13.878Z,8.92
2022-12-05T09:23:41.509Z,9.23
2022-12-05T09:26:11.913Z,9.25
2022-12-05T09:28:39.777Z,9.44
2022-12-05T09:31:10.039Z,9.40
2022-12-05T09:33:38.485Z,9.47
2022-12-05T09:36:06.956Z,9.51
2022-12-05T09:38:35.132Z,9.60
2022-12-05T09:41:51.286Z,9.69
2022-12-05T09:44:32.803Z,9.65
2022-12-05T09:47:04.646Z,9.77
2022-12-05T09:49:34.409Z,9.87
2022-12-05T09:52:03.431Z,9.96
2022-12-05T09:54:32.524Z,10.00
2022-12-05T09:57:00.075Z,10.12
2022-12-05T09:59:26.753Z,10.27
2022-12-05T10:01:56.364Z,10.37
2022-12-05T10:04:33.363Z,10.53
2022-12-05T10:07:27.465Z,10.57
2022-12-05T10:10:20.192Z,10.57
2022-12-05T10:13:05.894Z,10.52
2022-12-05T10:15:43.910Z,10.68
2022-12-05T10:18:20.292Z,10.77
2022-12-05T10:20:49.243Z,10.81
2022-12-05T10:23:48.755Z,10.98
2022-12-05T10:26:11.425Z,11.08
2022-12-05T10:28:41.487Z,11.11
2022-12-05T10:31:12.663Z,11.12
2022-12-05T10:33:44.805Z,11.32
2022-12-05T10:36:12.902Z,11.40
2022-12-05T10:38:41.321Z,11.47
2022-12-05T10:41:10.885Z,11.51
2022-12-05T10:43:41.108Z,11.67
2022-12-05T10:46:11.662Z,11.77
2022-12-05T10:48:43.025Z,11.72
2022-12-05T10:51:18.001Z,11.81
2022-12-05T10:53:51.298Z,11.90
2022-12-05T10:56:41.210Z,11.96
2022-12-05T10:59:13.875Z,12.14
2022-12-05T11:01:48.476Z,12.11
2022-12-05T11:04:20.785Z,12.02
2022-12-05T11:06:52.347Z,12.29
2022-12-05T11:09:26.365Z,12.20
2022-12-05T11:12:20.349Z,12.35
2022-12-05T11:15:01.203Z,12.26
2022-12-05T11:17:38.056Z,12.37
2022-12-05T11:20:18.162Z,12.37
2022-12-05T11:22:56.470Z,12.58
2022-12-05T11:25:34.044Z,12.63
2022-12-05T11:28:19.485Z,12.63
2022-12-05T11:31:19.978Z,12.58
2022-12-05T11:34:02.122Z,12.68
2022-12-05T11:36:43.775Z,12.62
2022-12-05T11:39:13.692Z,12.89
2022-12-05T11:41:58.760Z,12.99
2022-12-05T11:44:51.450Z,13.07
2022-12-05T11:47:53.462Z,13.09
2022-12-05T11:50:57.416Z,13.20
2022-12-05T11:53:42.609Z,13.34
2022-12-05T11:56:12.072Z,13.58
2022-12-05T11:58:52.657Z,13.76
2022-12-05T12:01:45.188Z,13.76
2022-12-05T12:04:23.965Z,13.89
2022-12-05T12:07:09.174Z,13.90
2022-12-05T12:10:03.638Z,13.89
2022-12-05T12:12:50.688Z,13.97
2022-12-05T12:15:31.412Z,14.11
2022-12-05T12:18:13.161Z,14.14
2022-12-05T12:20:42.610Z,14.34
2022-12-05T12:23:41.426Z,14.42
2022-12-05T12:26:14.570Z,14.54
2022-12-05T12:28:57.042Z,14.66
2022-12-05T12:31:54.719Z,14.68
2022-12-05T12:34:42.001Z,14.73
2022-12-05T12:37:32.725Z,14.70
2022-12-05T12:40:14.328Z,14.78
2022-12-05T12:43:51.623Z,14.83
2022-12-05T12:46:15.745Z,14.79
2022-12-05T12:48:54.520Z,14.76
2022-12-05T12:51:21.398Z,14.77
2022-12-05T12:54:10.424Z,14.81
2022-12-05T12:57:20.611Z,14.77
2022-12-05T13:00:18.156Z,14.72
2022-12-05T13:02:52.381Z,14.81
2022-12-05T13:05:28.227Z,14.80
2022-12-05T13:08:01.999Z,14.74
2022-12-05T13:10:41.060Z,14.82
2022-12-05T13:13:14.709Z,14.85
2022-12-05T13:15:44.832Z,14.81
2022-12-05T13:18:17.126Z,14.84
2022-12-05T13:20:46.429Z,14.90
2022-12-05T13:23:16.533Z,14.95
2022-12-05T13:25:46.091Z,14.89
2022-12-05T13:28:55.126Z,14.94
2022-12-05T13:31:54.564Z,14.94
2022-12-05T13:34:27.442Z,14.94
2022-12-05T13:37:14.600Z,14.95
2022-12-05T13:40:00.009Z,14.92
2022-12-05T13:42:31.981Z,14.86
2022-12-05T13:45:05.968Z,14.88
2022-12-05T13:47:35.204Z,14.89
2022-12-05T13:50:23.220Z,14.90
2022-12-05T13:53:16.820Z,14.82
2022-12-05T13:56:00.304Z,14.78
2022-12-05T13:58:45.515Z,14.79
2022-12-05T14:01:27.400Z,14.78
2022-12-05T14:03:55.640Z,14.81
2022-12-05T14:06:38.688Z,14.77
2022-12-05T14:09:17.234Z,14.86
2022-12-05T14:12:14.945Z,14.88
2022-12-05T14:15:04.095Z,14.74
2022-12-05T14:17:33.861Z,14.75
2022-12-05T14:20:21.571Z,14.75
2022-12-05T14:23:06.400Z,14.70
2022-12-05T14:25:58.123Z,14.68
2022-12-05T14:28:50.180Z,14.73
2022-12-05T14:31:42.576Z,14.70
2022-12-05T14:34:18.031Z,14.72
2022-12-05T14:37:05.054Z,14.70
2022-12-05T14:39:40.615Z,14.61
2022-12-05T14:42:24.509Z,14.68
2022-12-05T14:44:54.239Z,14.70
2022-12-05T14:47:26.921Z,14.70
2022-12-05T14:50:31.271Z,14.63
2022-12-05T14:53:22.677Z,14.62
2022-12-05T14:56:01.444Z,14.55
2022-12-05T14:58:40.683Z,14.56
2022-12-05T15:01:12.945Z,14.53
2022-12-05T15:03:54.726Z,14.39
2022-12-05T15:06:22.840Z,14.39
2022-12-05T15:08:55.076Z,14.36
2022-12-05T15:11:31.148Z,14.29
2022-12-05T15:14:13.017Z,14.22
2022-12-05T15:16:43.871Z,14.26
2022-12-05T15:19:19.185Z,14.28
2022-12-05T15:21:57.156Z,14.24
2022-12-05T15:24:23.982Z,14.21
2022-12-05T15:26:53.913Z,14.19
2022-12-05T15:29:20.635Z,14.23
2022-12-05T15:31:50.617Z,14.19
2022-12-05T15:34:17.263Z,14.17
2022-12-05T15:36:51.187Z,14.17
2022-12-05T15:39:25.891Z,14.12
2022-12-05T15:41:57.969Z,14.17
2022-12-05T15:44:31.676Z,14.11
2022-12-05T15:47:02.789Z,14.07
2022-12-05T15:49:29.548Z,14.06
2022-12-05T15:52:10.123Z,14.02
2022-12-05T15:54:38.622Z,13.98
2022-12-05T15:57:20.576Z,13.92
2022-12-05T16:00:01.256Z,13.99
2022-12-05T16:02:44.229Z,14.00
2022-12-05T16:05:24.923Z,14.01
2022-12-05T16:07:52.101Z,13.96
2022-12-05T16:10:23.420Z,13.93
2022-12-05T16:12:53.650Z,13.96
2022-12-05T16:15:23.134Z,13.98
2022-12-05T16:17:58.724Z,14.00
2022-12-05T16:20:31.423Z,13.95
2022-12-05T16:23:27.546Z,13.96
2022-12-05T16:26:09.746Z,13.90
2022-12-05T16:28:36.355Z,13.90
2022-12-05T16:31:05.568Z,13.88
2022-12-05T16:33:32.977Z,13.89
2022-12-05T16:36:12.962Z,13.90
2022-12-05T16:38:41.076Z,13.92
2022-12-05T16:41:09.278Z,13.91
2022-12-05T16:43:35.933Z,13.93
2022-12-05T16:46:12.934Z,13.94
2022-12-05T16:48:47.592Z,13.96
2022-12-05T16:51:16.986Z,13.93
2022-12-05T16:53:46.252Z,13.94
2022-12-05T16:56:16.672Z,13.95
2022-12-05T16:58:44.528Z,13.97
2022-12-05T17:01:18.114Z,14.01
2022-12-05T17:03:45.669Z,14.00
2022-12-05T17:06:14.789Z,14.00
2022-12-05T17:08:44.628Z,14.00
2022-12-05T17:11:27.203Z,14.00
2022-12-05T17:13:55.957Z,14.04
2022-12-05T17:16:22.727Z,14.08
2022-12-05T17:18:49.470Z,14.01
2022-12-05T17:21:19.654Z,14.06
2022-12-05T17:23:48.335Z,14.01
2022-12-05T17:26:17.594Z,14.02
2022-12-05T17:28:44.533Z,14.04
2022-12-05T17:31:17.469Z,14.01
2022-12-05T17:33:48.855Z,14.01
2022-12-05T17:36:16.371Z,14.01
2022-12-05T17:38:44.188Z,13.85
2022-12-05T17:41:23.085Z,13.79
2022-12-05T17:43:51.572Z,13.76
2022-12-05T17:46:21.381Z,13.71
2022-12-05T17:48:49.439Z,13.75
2022-12-05T17:51:16.610Z,13.73
2022-12-05T17:53:50.205Z,13.67
2022-12-05T17:56:16.932Z,13.70
2022-12-05T17:58:43.813Z,13.70
2022-12-05T18:01:19.527Z,13.70
2022-12-05T18:03:47.466Z,13.72
2022-12-05T18:06:14.828Z,13.71
2022-12-05T18:08:44.085Z,13.74
2022-12-05T18:11:14.233Z,13.77
2022-12-05T18:13:41.178Z,13.75
2022-12-05T18:16:08.120Z,13.74
2022-12-05T18:18:35.045Z,13.79
2022-12-05T18:21:11.472Z,13.80
2022-12-05T18:23:39.638Z,13.79
2022-12-05T18:26:08.817Z,13.78
2022-12-05T18:28:39.742Z,13.76
2022-12-05T18:31:08.526Z,13.81
2022-12-05T18:33:38.330Z,13.82
2022-12-05T18:36:09.978Z,13.85
2022-12-05T18:38:37.319Z,13.84
2022-12-05T18:41:05.865Z,13.84
2022-12-05T18:43:33.403Z,13.84
2022-12-05T18:46:02.254Z,13.80
2022-12-05T18:48:44.793Z,13.82
2022-12-05T18:51:19.738Z,13.82
2022-12-05T18:53:52.428Z,13.85
2022-12-05T18:56:27.880Z,13.83
2022-12-05T18:58:59.991Z,13.82
2022-12-05T19:01:27.651Z,13.81
2022-12-05T19:03:54.767Z,13.70
2022-12-05T19:06:24.658Z,13.74
2022-12-05T19:08:55.295Z,13.76
2022-12-05T19:11:23.109Z,13.71
2022-12-05T19:13:49.976Z,13.70
2022-12-05T19:16:18.561Z,13.66
2022-12-05T19:18:46.590Z,13.66
2022-12-05T19:21:13.726Z,13.61
2022-12-05T19:23:40.464Z,13.65
2022-12-05T19:26:09.619Z,13.60
2022-12-05T19:28:37.651Z,13.60
2022-12-05T19:31:09.843Z,13.60
2022-12-05T19:33:45.480Z,13.54
2022-12-05T19:36:27.162Z,13.55
2022-12-05T19:38:55.177Z,13.50
2022-12-05T19:41:24.379Z,13.43
2022-12-05T19:43:51.323Z,13.41
2022-12-05T19:46:20.671Z,13.34
2022-12-05T19:48:48.357Z,13.30
2022-12-05T19:51:15.104Z,13.34
2022-12-05T19:53:43.818Z,13.35
2022-12-05T19:56:21.939Z,13.40
2022-12-05T19:58:50.056Z,13.40
2022-12-05T20:01:26.037Z,13.44
2022-12-05T20:03:55.474Z,13.35
2022-12-05T20:06:22.587Z,13.33
2022-12-05T20:08:52.472Z,13.24
2022-12-05T20:11:24.982Z,13.26
2022-12-05T20:13:54.556Z,13.19
2022-12-05T20:16:22.975Z,13.17
2022-12-05T20:18:50.361Z,13.03
2022-12-05T20:21:20.196Z,12.97
2022-12-05T20:23:46.928Z,12.86
2022-12-05T20:26:17.564Z,12.97
2022-12-05T20:28:45.495Z,12.89
2022-12-05T20:31:14.520Z,12.83
2022-12-05T20:33:41.790Z,12.82
2022-12-05T20:36:14.515Z,12.68
2022-12-05T20:38:41.811Z,12.58
2022-12-05T20:41:11.633Z,12.63
2022-12-05T20:43:38.522Z,12.72
2022-12-05T20:46:13.937Z,12.75
2022-12-05T20:48:41.376Z,12.62
2022-12-05T20:51:11.065Z,12.62
2022-12-05T20:53:39.817Z,12.68
2022-12-05T20:56:18.056Z,12.76
2022-12-05T20:58:47.133Z,12.66
2022-12-05T21:01:15.276Z,12.62
2022-12-05T21:03:44.019Z,12.57
2022-12-05T21:06:13.466Z,12.55
2022-12-05T21:08:40.881Z,12.32
2022-12-05T21:11:08.825Z,12.36
2022-12-05T21:13:35.842Z,12.19
2022-12-05T21:16:08.262Z,12.33
2022-12-05T21:18:36.131Z,12.38
2022-12-05T21:21:05.861Z,12.40
2022-12-05T21:23:33.401Z,12.42
2022-12-05T21:26:05.871Z,12.43
2022-12-05T21:28:33.572Z,12.38
2022-12-05T21:31:08.244Z,12.40
2022-12-05T21:33:35.611Z,12.35
2022-12-05T21:36:02.297Z,12.31
2022-12-05T21:38:29.084Z,12.33
2022-12-05T21:40:55.739Z,12.23
2022-12-05T21:43:22.768Z,12.30
2022-12-05T21:45:56.067Z,12.31
2022-12-05T21:48:24.335Z,12.21
2022-12-05T21:50:51.675Z,12.24
2022-12-05T21:53:19.601Z,12.25
2022-12-05T21:55:46.313Z,12.18
2022-12-05T21:58:13.939Z,12.19
2022-12-05T22:00:40.674Z,12.12
2022-12-05T22:03:07.581Z,12.16
2022-12-05T22:05:34.365Z,12.21
2022-12-05T22:08:05.998Z,12.14
2022-12-05T22:10:36.365Z,12.16
2022-12-05T22:13:03.486Z,12.11
2022-12-05T22:15:30.428Z,12.05
2022-12-05T22:17:57.363Z,12.06
2022-12-05T22:20:24.067Z,12.14
2022-12-05T22:22:51.026Z,12.08
2022-12-05T22:25:17.722Z,12.07
2022-12-05T22:27:44.517Z,11.84
2022-12-05T22:30:11.465Z,11.74
2022-12-05T22:32:38.198Z,11.84
2022-12-05T22:35:17.264Z,11.81
2022-12-05T22:37:43.921Z,11.80
2022-12-05T22:40:10.918Z,11.80
2022-12-05T22:42:37.656Z,11.80
2022-12-05T22:45:04.724Z,11.56
2022-12-05T22:47:31.356Z,11.68
2022-12-05T22:49:58.150Z,11.64
2022-12-05T22:52:25.000Z,11.49
2022-12-05T22:54:51.659Z,11.50
2022-12-05T22:57:18.335Z,11.39
2022-12-05T22:59:44.997Z,11.49
2022-12-05T23:02:11.690Z,11.25
2022-12-05T23:04:38.289Z,11.36
2022-12-05T23:07:04.942Z,11.30
2022-12-05T23:09:31.545Z,11.30
2022-12-05T23:11:58.212Z,11.10
2022-12-05T23:14:24.879Z,11.27
2022-12-05T23:16:51.572Z,11.24
2022-12-05T23:19:18.358Z,11.07
2022-12-05T23:21:45.131Z,11.21
2022-12-05T23:24:12.858Z,11.30
2022-12-05T23:26:44.719Z,11.15
2022-12-05T23:29:13.155Z,11.19
2022-12-05T23:31:41.964Z,11.19
2022-12-05T23:34:09.305Z,11.05
2022-12-05T23:36:36.079Z,11.12
2022-12-05T23:39:03.627Z,11.14
2022-12-05T23:41:30.368Z,11.13
2022-12-05T23:43:58.016Z,11.06
2022-12-05T23:46:27.099Z,11.12
2022-12-05T23:48:55.207Z,11.18
2022-12-05T23:51:27.239Z,11.24
2022-12-05T23:53:55.105Z,11.22
2022-12-05T23:56:24.606Z,11.24
2022-12-05T23:58:51.766Z,11.31
